createdAt,value
2023-08-14T00:00:45.279Z,7.45
2023-08-14T00:03:12.386Z,9.73
2023-08-14T00:05:39.148Z,8.13
2023-08-14T00:08:06.302Z,6.65
2023-08-14T00:10:34.575Z,8.43
2023-08-14T00:13:01.341Z,11.20
2023-08-14T00:15:28.294Z,9.00
2023-08-14T00:17:55.095Z,9.80
2023-08-14T00:20:22.028Z,9.13
2023-08-14T00:22:48.864Z,8.68
2023-08-14T00:25:15.671Z,10.23
2023-08-14T00:27:43.906Z,8.13
2023-08-14T00:30:11.145Z,8.38
2023-08-14T00:32:38.034Z,7.07
2023-08-14T00:35:05.293Z,7.32
2023-08-14T00:37:41.372Z,8.65
2023-08-14T00:40:09.072Z,8.57
2023-08-14T00:42:35.850Z,9.68
2023-08-14T00:45:04.690Z,7.47
2023-08-14T00:47:31.514Z,7.68
2023-08-14T00:49:58.374Z,11.02
2023-08-14T00:52:25.499Z,9.60
2023-08-14T00:54:52.459Z,8.45
2023-08-14T00:57:19.167Z,8.00
2023-08-14T00:59:45.929Z,7.47
2023-08-14T01:02:14.285Z,10.18
2023-08-14T01:04:41.294Z,8.93
2023-08-14T01:07:08.172Z,8.23
2023-08-14T01:09:34.853Z,8.02
2023-08-14T01:12:04.340Z,6.93
2023-08-14T01:14:31.294Z,8.43
2023-08-14T01:16:59.657Z,10.68
2023-08-14T01:19:30.308Z,9.23
2023-08-14T01:22:03.929Z,9.20
2023-08-14T01:24:39.691Z,9.38
2023-08-14T01:27:07.896Z,11.50
2023-08-14T01:29:34.821Z,9.30
2023-08-14T01:32:01.579Z,7.93
2023-08-14T01:34:28.431Z,8.95
2023-08-14T01:36:58.407Z,8.30
2023-08-14T01:39:25.419Z,13.07
2023-08-14T01:41:54.411Z,7.38
2023-08-14T01:44:23.788Z,7.28
2023-08-14T01:46:50.541Z,10.00
2023-08-14T01:49:18.174Z,7.50
2023-08-14T01:51:44.905Z,8.50
2023-08-14T01:54:11.684Z,7.45
2023-08-14T01:56:38.488Z,6.78
2023-08-14T01:59:05.273Z,6.93
2023-08-14T02:01:33.643Z,9.75
2023-08-14T02:04:00.469Z,7.60
2023-08-14T02:06:27.208Z,6.97
2023-08-14T02:08:54.126Z,7.13
2023-08-14T02:11:20.899Z,9.02
2023-08-14T02:13:47.694Z,12.27
2023-08-14T02:16:14.483Z,7.97
2023-08-14T02:18:42.638Z,7.45
2023-08-14T02:21:09.472Z,6.55
2023-08-14T02:23:36.248Z,7.47
2023-08-14T02:26:03.706Z,8.35
2023-08-14T02:28:30.445Z,7.20
2023-08-14T02:30:57.151Z,9.95
2023-08-14T02:33:24.147Z,11.20
2023-08-14T02:35:52.325Z,6.78
2023-08-14T02:38:19.454Z,9.65
2023-08-14T02:40:46.257Z,6.63
2023-08-14T02:43:13.254Z,7.60
2023-08-14T02:45:40.757Z,7.85
2023-08-14T02:48:07.797Z,9.15
2023-08-14T02:50:34.551Z,9.02
2023-08-14T02:53:02.839Z,8.82
2023-08-14T02:55:29.646Z,7.80
2023-08-14T02:57:56.405Z,8.23
2023-08-14T03:00:23.179Z,9.13
2023-08-14T03:02:50.138Z,7.13
2023-08-14T03:05:17.502Z,7.13
2023-08-14T03:07:44.363Z,8.52
2023-08-14T03:10:12.540Z,9.88
2023-08-14T03:12:39.428Z,8.52
2023-08-14T03:15:06.573Z,8.02
2023-08-14T03:17:33.541Z,9.93
2023-08-14T03:20:00.318Z,8.50
2023-08-14T03:22:27.368Z,8.07
2023-08-14T03:24:54.653Z,6.47
2023-08-14T03:27:22.884Z,6.93
2023-08-14T03:29:49.610Z,9.30
2023-08-14T03:32:16.748Z,12.60
2023-08-14T03:34:43.728Z,9.60
2023-08-14T03:37:12.628Z,11.32
2023-08-14T03:39:39.641Z,11.45
2023-08-14T03:42:06.720Z,8.82
2023-08-14T03:44:34.956Z,8.18
2023-08-14T03:47:01.756Z,11.88
2023-08-14T03:49:28.495Z,9.70
2023-08-14T03:51:55.201Z,9.95
2023-08-14T03:54:22.082Z,14.50
2023-08-14T03:56:48.817Z,17.15
2023-08-14T03:59:15.584Z,7.95
2023-08-14T04:01:43.821Z,10.48
2023-08-14T04:04:10.582Z,13.75
2023-08-14T04:06:37.314Z,10.95
2023-08-14T04:09:04.692Z,8.07
2023-08-14T04:11:31.476Z,9.10
2023-08-14T04:13:58.349Z,11.38
2023-08-14T04:16:25.164Z,8.05
2023-08-14T04:18:53.261Z,9.15
2023-08-14T04:21:20.117Z,8.48
2023-08-14T04:23:46.945Z,8.65
2023-08-14T04:26:13.693Z,9.80
2023-08-14T04:28:40.433Z,11.45
2023-08-14T04:31:07.123Z,13.13
2023-08-14T04:33:33.902Z,11.95
2023-08-14T04:36:02.120Z,11.77
2023-08-14T04:38:28.904Z,14.13
2023-08-14T04:40:55.809Z,11.32
2023-08-14T04:43:22.627Z,26.88
2023-08-14T04:45:49.463Z,49.90
2023-08-14T04:48:18.177Z,32.83
2023-08-14T04:50:45.201Z,15.43
2023-08-14T04:53:13.419Z,10.25
2023-08-14T04:55:40.163Z,10.82
2023-08-14T04:58:06.913Z,9.57
2023-08-14T05:00:33.735Z,9.52
2023-08-14T05:03:00.533Z,9.93
2023-08-14T05:05:27.313Z,7.57
2023-08-14T05:07:54.126Z,10.73
2023-08-14T05:10:22.469Z,9.18
2023-08-14T05:12:49.170Z,14.75
2023-08-14T05:15:16.432Z,7.93
2023-08-14T05:17:43.206Z,11.60
2023-08-14T05:20:10.907Z,12.40
2023-08-14T05:22:37.668Z,13.48
2023-08-14T05:25:05.210Z,8.63
2023-08-14T05:27:33.393Z,13.45
2023-08-14T05:30:00.583Z,7.43
2023-08-14T05:32:27.609Z,7.90
2023-08-14T05:34:54.401Z,6.15
2023-08-14T05:37:21.244Z,10.43
2023-08-14T05:39:48.069Z,6.28
2023-08-14T05:42:14.826Z,7.35
2023-08-14T05:44:43.609Z,7.28
2023-08-14T05:47:10.408Z,10.27
2023-08-14T05:49:37.152Z,7.80
2023-08-14T05:52:04.325Z,7.80
2023-08-14T05:54:31.097Z,7.85
2023-08-14T05:56:57.836Z,7.47
2023-08-14T05:59:24.561Z,5.65
2023-08-14T06:01:55.604Z,4.60
2023-08-14T06:04:24.375Z,7.00
2023-08-14T06:06:51.664Z,3.83
2023-08-14T06:09:18.486Z,9.15
2023-08-14T06:11:45.253Z,7.45
2023-08-14T06:14:12.026Z,6.20
2023-08-14T06:16:38.837Z,5.97
2023-08-14T06:19:08.352Z,8.10
2023-08-14T06:21:35.129Z,7.60
2023-08-14T06:24:02.348Z,8.25
2023-08-14T06:26:29.139Z,9.30
2023-08-14T06:28:55.932Z,7.78
2023-08-14T06:31:22.879Z,8.55
2023-08-14T06:33:49.819Z,8.52
2023-08-14T06:36:18.768Z,6.10
2023-08-14T06:38:45.533Z,5.38
2023-08-14T06:41:12.389Z,6.22
2023-08-14T06:43:39.078Z,6.15
2023-08-14T06:46:05.813Z,6.25
2023-08-14T06:48:32.663Z,12.25
2023-08-14T06:50:59.507Z,7.05
2023-08-14T06:53:27.953Z,6.75
2023-08-14T06:55:54.791Z,8.98
2023-08-14T06:58:21.553Z,7.03
2023-08-14T07:00:48.650Z,3.65
2023-08-14T07:03:15.583Z,8.95
2023-08-14T07:05:42.592Z,7.30
2023-08-14T07:08:09.472Z,5.10
2023-08-14T07:10:38.395Z,3.63
2023-08-14T07:13:05.396Z,6.38
2023-08-14T07:15:32.154Z,5.40
2023-08-14T07:17:59.042Z,9.90
2023-08-14T07:20:26.499Z,4.97
2023-08-14T07:22:53.669Z,11.82
2023-08-14T07:25:20.488Z,10.40
2023-08-14T07:27:48.629Z,5.88
2023-08-14T07:30:15.414Z,6.95
2023-08-14T07:32:42.185Z,10.57
2023-08-14T07:35:09.217Z,8.88
2023-08-14T07:37:35.969Z,5.90
2023-08-14T07:40:02.841Z,6.10
2023-08-14T07:42:29.544Z,3.33
2023-08-14T07:44:58.252Z,8.73
2023-08-14T07:47:25.145Z,6.93
2023-08-14T07:49:51.933Z,4.80
2023-08-14T07:52:18.846Z,3.80
2023-08-14T07:54:45.704Z,5.03
2023-08-14T07:57:12.389Z,5.47
2023-08-14T07:59:39.240Z,3.63
2023-08-14T08:02:08.223Z,5.93
2023-08-14T08:04:39.613Z,8.57
2023-08-14T08:07:06.813Z,5.75
2023-08-14T08:09:33.907Z,6.10
2023-08-14T08:12:00.654Z,5.78
2023-08-14T08:14:27.938Z,5.03
2023-08-14T08:16:54.749Z,6.07
2023-08-14T08:19:22.839Z,6.05
2023-08-14T08:21:49.622Z,3.80
2023-08-14T08:24:16.512Z,6.60
2023-08-14T08:26:43.397Z,3.88
2023-08-14T08:29:10.105Z,4.10
2023-08-14T08:31:37.065Z,7.93
2023-08-14T08:34:04.292Z,6.50
2023-08-14T08:36:32.452Z,9.50
2023-08-14T08:38:59.377Z,3.78
2023-08-14T08:41:29.051Z,9.18
2023-08-14T08:43:58.660Z,5.28
2023-08-14T08:46:25.656Z,2.38
2023-08-14T08:48:52.419Z,4.38
2023-08-14T08:51:19.395Z,4.47
2023-08-14T08:53:47.622Z,6.18
2023-08-14T08:56:14.685Z,4.78
2023-08-14T08:58:41.440Z,2.92
2023-08-14T09:01:08.665Z,8.60
2023-08-14T09:03:35.617Z,5.05
2023-08-14T09:06:02.500Z,4.18
2023-08-14T09:08:29.534Z,5.55
2023-08-14T09:10:57.681Z,4.85
2023-08-14T09:13:31.741Z,3.75
2023-08-14T09:16:00.921Z,2.50
2023-08-14T09:18:27.669Z,1.90
2023-08-14T09:20:54.672Z,5.60
2023-08-14T09:23:21.414Z,2.80
2023-08-14T09:25:48.508Z,3.78
2023-08-14T09:28:16.813Z,2.72
2023-08-14T09:30:43.652Z,2.95
2023-08-14T09:33:11.151Z,2.40
2023-08-14T09:35:39.214Z,3.80
2023-08-14T09:38:06.081Z,7.28
2023-08-14T09:40:32.912Z,3.47
2023-08-14T09:43:00.345Z,2.55
2023-08-14T09:45:30.015Z,2.80
2023-08-14T09:47:59.554Z,3.08
2023-08-14T09:50:28.087Z,4.07
2023-08-14T09:52:56.944Z,1.88
2023-08-14T09:55:23.797Z,2.65
2023-08-14T09:57:50.595Z,3.17
2023-08-14T10:00:17.845Z,3.03
2023-08-14T10:02:47.430Z,1.58
2023-08-14T10:05:14.444Z,3.33
2023-08-14T10:07:41.320Z,2.72
2023-08-14T10:10:08.618Z,3.13
2023-08-14T10:12:38.705Z,2.95
2023-08-14T10:15:07.056Z,3.58
2023-08-14T10:17:35.695Z,5.03
2023-08-14T10:20:04.546Z,1.90
2023-08-14T10:22:32.395Z,3.33
2023-08-14T10:25:01.309Z,3.67
2023-08-14T10:27:28.046Z,3.03
2023-08-14T10:29:54.960Z,2.38
2023-08-14T10:32:21.721Z,3.20
2023-08-14T10:34:48.554Z,4.38
2023-08-14T10:37:26.876Z,3.17
2023-08-14T10:39:53.664Z,1.83
2023-08-14T10:42:21.623Z,4.10
2023-08-14T10:44:48.648Z,4.25
2023-08-14T10:47:15.438Z,1.35
2023-08-14T10:49:45.393Z,2.55
2023-08-14T10:52:14.637Z,1.92
2023-08-14T10:54:43.100Z,5.03
2023-08-14T10:57:11.552Z,5.38
2023-08-14T10:59:40.619Z,2.25
2023-08-14T11:02:13.668Z,2.80
2023-08-14T11:04:41.621Z,1.85
2023-08-14T11:07:08.645Z,1.83
2023-08-14T11:09:36.603Z,3.97
2023-08-14T11:12:05.989Z,4.00
2023-08-14T11:14:37.379Z,3.90
2023-08-14T11:17:04.465Z,2.03
2023-08-14T11:19:31.284Z,2.70
2023-08-14T11:21:58.082Z,1.60
2023-08-14T11:24:24.830Z,2.67
2023-08-14T11:26:53.362Z,2.10
2023-08-14T11:29:21.944Z,1.60
2023-08-14T11:31:49.820Z,1.88
2023-08-14T11:34:16.906Z,3.70
2023-08-14T11:37:05.756Z,3.05
2023-08-14T11:39:34.442Z,4.57
2023-08-14T11:42:01.262Z,1.60
2023-08-14T11:44:29.607Z,2.85
2023-08-14T11:46:56.452Z,1.50
2023-08-14T11:49:23.561Z,4.65
2023-08-14T11:51:50.984Z,2.42
2023-08-14T11:54:17.764Z,1.80
2023-08-14T11:56:44.575Z,1.58
2023-08-14T11:59:11.855Z,1.77
2023-08-14T12:01:41.304Z,3.58
2023-08-14T12:04:08.323Z,1.58
2023-08-14T12:06:35.233Z,4.90
2023-08-14T12:09:01.948Z,9.00
2023-08-14T12:11:28.668Z,1.60
2023-08-14T12:13:55.483Z,3.67
2023-08-14T12:16:22.549Z,3.35
2023-08-14T12:18:51.072Z,3.42
2023-08-14T12:21:17.831Z,2.50
2023-08-14T12:23:45.687Z,3.33
2023-08-14T12:26:12.444Z,1.95
2023-08-14T12:28:39.663Z,3.53
2023-08-14T12:31:06.650Z,2.50
2023-08-14T12:33:33.519Z,2.42
2023-08-14T12:36:01.696Z,3.95
2023-08-14T12:38:28.479Z,3.30
2023-08-14T12:40:55.204Z,3.08
2023-08-14T12:43:30.641Z,2.80
2023-08-14T12:46:03.608Z,1.88
2023-08-14T12:48:30.652Z,1.58
2023-08-14T12:51:02.824Z,2.85
2023-08-14T12:53:31.627Z,1.85
2023-08-14T12:56:03.584Z,3.88
2023-08-14T12:58:31.722Z,2.72
2023-08-14T13:01:04.657Z,4.80
2023-08-14T13:06:02.418Z,3.45
2023-08-14T13:08:29.304Z,2.55
2023-08-14T13:10:57.605Z,2.05
2023-08-14T13:13:24.387Z,3.50
2023-08-14T13:15:51.966Z,2.33
2023-08-14T13:18:18.858Z,3.10
2023-08-14T13:20:45.596Z,2.53
2023-08-14T13:23:12.441Z,2.65
2023-08-14T13:25:42.453Z,2.58
2023-08-14T13:28:11.916Z,2.60
2023-08-14T13:30:39.685Z,4.60
2023-08-14T13:33:07.691Z,2.20
2023-08-14T13:35:34.703Z,4.47
2023-08-14T13:38:02.101Z,3.80
2023-08-14T13:40:28.901Z,3.38
2023-08-14T13:42:55.610Z,3.10
2023-08-14T13:45:24.246Z,2.97
2023-08-14T13:47:55.755Z,1.75
2023-08-14T13:52:54.107Z,4.13
2023-08-14T13:55:21.407Z,4.78
2023-08-14T13:57:48.206Z,5.97
2023-08-14T14:00:15.306Z,6.32
2023-08-14T14:02:43.631Z,2.75
2023-08-14T14:05:10.365Z,3.70
2023-08-14T14:07:46.542Z,2.90
2023-08-14T14:10:18.149Z,3.70
2023-08-14T14:12:59.673Z,1.90
2023-08-14T14:15:28.030Z,5.18
2023-08-14T14:17:56.346Z,4.25
2023-08-14T14:20:23.456Z,6.03
2023-08-14T14:22:50.375Z,2.95
2023-08-14T14:25:17.390Z,3.30
2023-08-14T14:27:44.132Z,3.33
2023-08-14T14:30:12.212Z,4.13
2023-08-14T14:32:39.139Z,2.22
2023-08-14T14:35:08.031Z,1.58
2023-08-14T14:37:34.864Z,2.25
2023-08-14T14:40:02.164Z,13.05
2023-08-14T14:42:28.933Z,3.08
2023-08-14T14:44:55.653Z,2.40
2023-08-14T14:47:23.566Z,2.22
2023-08-14T14:49:50.836Z,1.60
2023-08-14T14:52:19.084Z,13.90
2023-08-14T14:54:45.850Z,5.72
2023-08-14T14:57:12.932Z,3.38
2023-08-14T14:59:40.891Z,3.22
2023-08-14T15:02:19.113Z,3.45
2023-08-14T15:04:50.634Z,4.00
2023-08-14T15:07:18.893Z,1.95
2023-08-14T15:09:45.801Z,4.18
2023-08-14T15:12:13.184Z,2.67
2023-08-14T15:14:40.001Z,2.45
2023-08-14T15:17:06.693Z,5.05
2023-08-14T15:19:33.433Z,5.50
2023-08-14T15:22:00.196Z,4.93
2023-08-14T15:24:28.259Z,6.47
2023-08-14T15:26:54.944Z,1.83
2023-08-14T15:29:21.676Z,8.68
2023-08-14T15:31:48.444Z,3.92
2023-08-14T15:34:17.922Z,5.53
2023-08-14T15:36:44.656Z,1.67
2023-08-14T15:39:11.375Z,3.63
2023-08-14T15:41:39.540Z,2.95
2023-08-14T15:44:08.879Z,2.53
2023-08-14T15:46:35.832Z,2.75
2023-08-14T15:49:02.951Z,5.45
2023-08-14T15:51:29.639Z,2.83
2023-08-14T15:53:56.401Z,1.95
2023-08-14T15:56:23.639Z,3.17
2023-08-14T15:58:51.855Z,4.00
2023-08-14T16:01:18.552Z,3.65
2023-08-14T16:03:45.440Z,4.22
2023-08-14T16:06:12.436Z,5.05
2023-08-14T16:08:39.137Z,3.97
2023-08-14T16:11:05.834Z,4.18
2023-08-14T16:13:34.054Z,3.40
2023-08-14T16:16:02.167Z,2.97
2023-08-14T16:18:29.054Z,4.80
2023-08-14T16:20:56.731Z,3.10
2023-08-14T16:23:24.809Z,5.93
2023-08-14T16:25:51.516Z,2.83
2023-08-14T16:28:18.267Z,6.35
2023-08-14T16:30:46.176Z,4.07
2023-08-14T16:33:14.515Z,2.75
2023-08-14T16:35:41.320Z,7.30
2023-08-14T16:38:08.077Z,2.22
2023-08-14T16:40:40.581Z,2.55
2023-08-14T16:43:07.272Z,4.30
2023-08-14T16:45:34.375Z,4.38
2023-08-14T16:48:01.091Z,3.40
2023-08-14T16:50:29.208Z,5.47
2023-08-14T16:52:56.047Z,4.68
2023-08-14T16:55:23.372Z,5.43
2023-08-14T16:57:50.084Z,3.90
2023-08-14T17:00:17.307Z,6.65
2023-08-14T17:02:44.412Z,7.65
2023-08-14T17:05:11.194Z,3.42
2023-08-14T17:07:39.305Z,4.03
2023-08-14T17:10:06.651Z,6.97
2023-08-14T17:12:34.246Z,7.72
2023-08-14T17:15:01.005Z,6.07
2023-08-14T17:17:27.756Z,6.35
2023-08-14T17:19:54.695Z,5.40
2023-08-14T17:22:21.419Z,5.03
2023-08-14T17:24:49.487Z,9.68
2023-08-14T17:27:16.545Z,3.65
2023-08-14T17:29:43.322Z,13.48
2023-08-14T17:32:11.644Z,17.67
2023-08-14T17:34:38.430Z,12.95
2023-08-14T17:37:05.450Z,13.88
2023-08-14T17:39:32.172Z,13.73
2023-08-14T17:42:00.328Z,5.20
2023-08-14T17:44:27.052Z,7.20
2023-08-14T17:46:54.056Z,7.30
2023-08-14T17:49:20.827Z,8.93
2023-08-14T17:51:48.338Z,8.70
2023-08-14T17:54:15.356Z,12.35
2023-08-14T17:56:42.071Z,4.38
2023-08-14T17:59:10.485Z,7.05
2023-08-14T18:01:37.232Z,7.07
2023-08-14T18:04:04.884Z,4.63
2023-08-14T18:06:31.598Z,8.98
2023-08-14T18:08:58.303Z,7.05
2023-08-14T18:11:25.222Z,9.38
2023-08-14T18:13:51.958Z,20.08
2023-08-14T18:16:20.050Z,26.58
2023-08-14T18:18:46.899Z,22.65
2023-08-14T18:21:16.583Z,21.70
2023-08-14T18:23:50.915Z,32.00
2023-08-14T18:26:17.684Z,17.55
2023-08-14T18:28:45.090Z,12.38
2023-08-14T18:31:12.170Z,18.65
2023-08-14T18:33:40.310Z,9.45
2023-08-14T18:36:06.990Z,11.63
2023-08-14T18:38:33.881Z,10.18
2023-08-14T18:41:00.603Z,11.82
2023-08-14T18:43:27.352Z,12.65
2023-08-14T18:45:55.430Z,10.20
2023-08-14T18:48:22.203Z,5.90
2023-08-14T18:50:50.932Z,8.35
2023-08-14T18:53:18.340Z,12.15
2023-08-14T18:55:46.256Z,15.00
2023-08-14T18:58:14.358Z,9.13
2023-08-14T19:00:41.108Z,6.28
2023-08-14T19:03:07.842Z,6.63
2023-08-14T19:05:35.005Z,11.07
2023-08-14T19:08:03.211Z,10.70
2023-08-14T19:10:31.877Z,12.60
2023-08-14T19:12:58.564Z,10.70
2023-08-14T19:15:26.637Z,15.55
2023-08-14T19:17:53.394Z,21.60
2023-08-14T19:20:20.197Z,9.40
2023-08-14T19:22:46.943Z,8.63
2023-08-14T19:25:16.381Z,7.03
2023-08-14T19:27:43.114Z,14.18
2023-08-14T19:30:10.569Z,12.63
2023-08-14T19:32:37.282Z,8.82
2023-08-14T19:35:04.429Z,6.10
2023-08-14T19:37:31.516Z,9.48
2023-08-14T19:39:58.289Z,11.20
2023-08-14T19:42:26.616Z,10.75
2023-08-14T19:44:53.358Z,11.50
2023-08-14T19:47:20.305Z,9.63
2023-08-14T19:49:47.414Z,10.25
2023-08-14T19:52:14.174Z,8.82
2023-08-14T19:54:41.018Z,14.60
2023-08-14T19:57:07.721Z,11.73
2023-08-14T19:59:36.417Z,7.75
2023-08-14T20:02:05.001Z,9.45
2023-08-14T20:04:31.829Z,9.05
2023-08-14T20:06:58.624Z,12.25
2023-08-14T20:09:25.957Z,9.43
2023-08-14T20:11:52.644Z,12.48
2023-08-14T20:14:20.773Z,8.57
2023-08-14T20:16:51.939Z,7.68
2023-08-14T20:19:18.644Z,6.38
2023-08-14T20:21:45.774Z,9.88
2023-08-14T20:24:12.480Z,10.15
2023-08-14T20:26:39.196Z,10.68
2023-08-14T20:29:06.216Z,12.50
2023-08-14T20:31:33.118Z,7.15
2023-08-14T20:34:01.162Z,11.43
2023-08-14T20:36:27.896Z,8.88
2023-08-14T20:38:54.686Z,9.38
2023-08-14T20:41:21.568Z,10.45
2023-08-14T20:43:48.859Z,12.60
2023-08-14T20:46:16.221Z,10.57
2023-08-14T20:48:42.959Z,8.82
2023-08-14T20:51:11.030Z,10.32
2023-08-14T20:53:37.694Z,10.68
2023-08-14T20:56:04.852Z,9.15
2023-08-14T20:58:31.645Z,7.32
2023-08-14T21:00:58.334Z,15.88
2023-08-14T21:03:25.156Z,16.13
2023-08-14T21:05:52.079Z,8.60
2023-08-14T21:08:20.927Z,8.20
2023-08-14T21:10:47.704Z,9.10
2023-08-14T21:13:14.470Z,11.52
2023-08-14T21:15:41.257Z,8.95
2023-08-14T21:18:07.977Z,10.38
2023-08-14T21:20:34.792Z,12.63
2023-08-14T21:23:01.758Z,7.55
2023-08-14T21:25:34.956Z,8.10
2023-08-14T21:28:11.101Z,9.20
2023-08-14T21:30:38.150Z,12.18
2023-08-14T21:33:05.425Z,8.35
2023-08-14T21:35:32.230Z,8.05
2023-08-14T21:37:58.977Z,9.02
2023-08-14T21:40:25.726Z,8.25
2023-08-14T21:42:53.987Z,9.75
2023-08-14T21:45:20.700Z,7.60
2023-08-14T21:47:47.636Z,8.60
2023-08-14T21:50:14.708Z,7.30
2023-08-14T21:52:41.412Z,8.35
2023-08-14T21:55:09.325Z,11.90
2023-08-14T21:57:36.411Z,8.70
2023-08-14T22:00:05.442Z,7.15
2023-08-14T22:02:32.484Z,7.60
2023-08-14T22:04:59.267Z,7.95
2023-08-14T22:07:26.173Z,7.05
2023-08-14T22:09:52.901Z,7.70
2023-08-14T22:12:19.606Z,7.30
2023-08-14T22:14:46.416Z,7.30
2023-08-14T22:17:14.569Z,8.02
2023-08-14T22:19:41.266Z,9.55
2023-08-14T22:22:08.032Z,7.78
2023-08-14T22:24:41.104Z,10.15
2023-08-14T22:27:08.611Z,8.40
2023-08-14T22:29:35.295Z,8.82
2023-08-14T22:32:02.081Z,8.52
2023-08-14T22:34:30.225Z,7.03
2023-08-14T22:36:57.284Z,13.50
2023-08-14T22:39:24.122Z,9.55
2023-08-14T22:41:50.978Z,8.27
2023-08-14T22:44:17.881Z,11.25
2023-08-14T22:46:44.576Z,10.95
2023-08-14T22:49:11.377Z,8.88
2023-08-14T22:51:39.594Z,8.00
2023-08-14T22:54:07.160Z,13.05
2023-08-14T22:56:34.472Z,8.95
2023-08-14T22:59:01.421Z,10.02
2023-08-14T23:01:29.038Z,9.15
2023-08-14T23:03:55.879Z,10.43
2023-08-14T23:06:22.831Z,10.73
2023-08-14T23:08:50.916Z,10.38
2023-08-14T23:11:18.102Z,7.00
2023-08-14T23:13:44.948Z,7.20
2023-08-14T23:16:11.676Z,7.10
2023-08-14T23:18:38.644Z,7.50
2023-08-14T23:21:05.401Z,8.60
2023-08-14T23:23:32.124Z,8.45
2023-08-14T23:26:00.290Z,10.43
2023-08-14T23:28:27.018Z,10.13
2023-08-14T23:30:53.742Z,9.30
2023-08-14T23:33:20.513Z,7.25
2023-08-14T23:35:47.197Z,6.80
2023-08-14T23:38:14.061Z,7.85
2023-08-14T23:40:40.824Z,8.75
2023-08-14T23:43:08.955Z,8.13
2023-08-14T23:45:35.738Z,7.85
2023-08-14T23:48:02.595Z,11.38
2023-08-14T23:50:29.462Z,13.05
2023-08-14T23:52:56.282Z,7.15
2023-08-14T23:55:23.056Z,8.23
2023-08-14T23:57:49.841Z,8.05
